Forecast Period: 

6:00 am 13th March, 2023 to 12:00 noon 13th March, 2023

Synopsis:
The Atlantic high-pressure system will be the dominant feature
Forecast:
Fair to partly cloudy with isolated showers

Weather Advisory/Warning:

None

Winds:

ENE - E at 10 to 25km/h (6 to 16 mph)
Sea Conditions:
Slight to moderate in open water swells from 1.0m to 2.0m 

Marine
Advisory/Warning:

None 

Upcoming Tides:
High: 11:22 am 10:37 pm
Low: 06:19 am 03:28 pm

Aviation WX

[Source: ADDS]
METAR
TVSA 231400Z 04011KT 010V100 9999 FEW020 28/21 Q1016 NOSIG =
TVSA 231100Z 2312/2412 07010KT 9999 SCT020
TAF
TVSA 231100Z 2312/2412 07010KT 9999 SCT020 =
SR / SS: 10:06 / 22:15 UTC (Sunrise Sunset 2023-03-23)